Weather History for KVLL - December, 2012

Change the Weather History Date:

Tuesday, December 11, 2012

  Actual Average (KDET) Record (KDET)
Temperature  
Mean Temperature 33 °F -  
Max Temperature 37 °F 35 °F 61 °F (1979)
Min Temperature 29 °F 25 °F 4 °F (1977)
Degree Days  
Heating Degree Days 32    
Moisture  
Dew Point 22 °F    
Average Humidity 63    
Maximum Humidity 74    
Minimum Humidity 50    
Precipitation  
Precipitation 0.00 in - - ()
Sea Level Pressure  
Sea Level Pressure 30.03 in    
Wind  
Wind Speed 7 mph (WSW)    
Max Wind Speed 17 mph    
Max Gust Speed 23 mph    
Visibility 10 miles    
Events      
Averages and records for this station are not official NWS values.
T = Trace of Precipitation, MM = Missing Value Source: NWS Daily Summary

Daily Weather History Graph

Daily Weather History Graph

Search for Another Location

Airport or City:

Trip Planner

Search our weather history database for the weather conditions in past years. The results will help you decide how hot, cold, wet, or windy it might be!

Date:

Astronomy

Dec. 11, 2012 Rise Set
Actual Time 7:52 AM EST 4:59 PM EST
Civil Twilight 7:20 AM EST 5:31 PM EST
Nautical Twilight 6:45 AM EST 6:07 PM EST
Astronomical Twilight 6:11 AM EST 6:41 PM EST
Moon 5:45 AM EST (12/11) 3:38 PM EST (12/11)
Length of Visible Light 10h 10m
Length of Day
9h 06m
Waning Crescent, 4% of the Moon is Illuminated
Dec 11
Waning Crescent
Dec 13
New
Dec 20
First Quarter
Dec 28
Full
Jan 4
Last Quarter

Hourly Weather History & Observations

Time (EST) Temp. Windchill Dew Point Humidity Pressure Visibility Wind Dir Wind Speed Gust Speed Precip Events Conditions
12:15 AM 33.6 °F 28.4 °F 21.9 °F 62% 29.88 in 10.0 mi NW 5.8 mph - N/A   Overcast
12:34 AM 33.4 °F 26.6 °F 22.1 °F 63% 29.90 in 10.0 mi NNW 8.1 mph - N/A   Overcast
12:54 AM 33.3 °F 27.1 °F 22.6 °F 65% 29.88 in 10.0 mi NW 6.9 mph - N/A   Overcast
1:15 AM 33.4 °F 29.1 °F 21.7 °F 62% 29.88 in 10.0 mi NW 4.6 mph - N/A   Overcast
1:34 AM 33.3 °F 27.9 °F 20.3 °F 59% 29.88 in 10.0 mi NNW 5.8 mph - N/A   Overcast
1:54 AM 33.3 °F 27.1 °F 20.5 °F 59% 29.89 in 10.0 mi NW 6.9 mph - N/A   Overcast
2:15 AM 33.4 °F 30.4 °F 21.4 °F 61% 29.90 in 10.0 mi WNW 3.5 mph - N/A   Overcast
2:34 AM 33.1 °F 30.0 °F 22.8 °F 66% 29.91 in 10.0 mi NW 3.5 mph - N/A   Overcast
2:55 AM 32.9 °F 27.5 °F 23.4 °F 68% 29.90 in 10.0 mi NNW 5.8 mph - N/A   Overcast
3:14 AM 32.7 °F 25.7 °F 22.6 °F 66% 29.91 in 10.0 mi NNW 8.1 mph - N/A   Overcast
3:35 AM 32.9 °F 27.5 °F 22.1 °F 65% 29.92 in 10.0 mi NW 5.8 mph - N/A   Overcast
3:55 AM 32.7 °F 28.3 °F 22.1 °F 65% 29.92 in 10.0 mi WNW 4.6 mph - N/A   Overcast
4:14 AM 32.7 °F 27.3 °F 22.5 °F 66% 29.92 in 10.0 mi NW 5.8 mph - N/A   Overcast
4:35 AM 32.7 °F 27.3 °F 22.5 °F 66% 29.93 in 10.0 mi WNW 5.8 mph - N/A   Overcast
4:55 AM 32.5 °F 26.2 °F 22.1 °F 65% 29.94 in 10.0 mi West 6.9 mph - N/A   Overcast
5:14 AM 32.4 °F 26.0 °F 21.9 °F 65% 29.95 in 10.0 mi WNW 6.9 mph - N/A   Overcast
5:35 AM 32.2 °F 25.8 °F 22.1 °F 66% 29.95 in 10.0 mi West 6.9 mph - N/A   Overcast
5:54 AM 32.0 °F 25.6 °F 22.1 °F 67% 29.96 in 10.0 mi WNW 6.9 mph - N/A   Overcast
6:14 AM 32.0 °F 25.6 °F 21.2 °F 64% 29.96 in 10.0 mi West 6.9 mph - N/A   Mostly Cloudy
6:35 AM 31.5 °F 26.8 °F 21.6 °F 67% 29.97 in 10.0 mi WNW 4.6 mph - N/A   Scattered Clouds
6:54 AM 31.1 °F 25.4 °F 21.2 °F 67% 29.98 in 10.0 mi West 5.8 mph - N/A   Scattered Clouds
7:14 AM 30.6 °F 23.8 °F 21.0 °F 68% 29.99 in 10.0 mi West 6.9 mph - N/A   Clear
7:35 AM 30.2 °F 23.4 °F 20.5 °F 67% 29.99 in 10.0 mi West 6.9 mph - N/A   Clear
7:54 AM 29.8 °F 24.9 °F 20.8 °F 69% 30.00 in 10.0 mi WNW 4.6 mph - N/A   Clear
8:14 AM 29.8 °F - 20.8 °F 69% 30.01 in 10.0 mi Calm Calm - N/A   Clear
8:35 AM 30.0 °F 25.2 °F 20.8 °F 69% 30.01 in 10.0 mi WNW 4.6 mph - N/A   Clear
8:54 AM 30.2 °F 26.7 °F 20.8 °F 68% 30.02 in 10.0 mi WNW 3.5 mph - N/A   Clear
9:15 AM 30.6 °F - 20.5 °F 66% 30.03 in 10.0 mi Calm Calm - N/A   Clear
9:35 AM 30.9 °F 26.2 °F 20.7 °F 66% 30.04 in 10.0 mi WNW 4.6 mph - N/A   Clear
9:54 AM 31.6 °F - 20.8 °F 64% 30.04 in 10.0 mi Calm Calm - N/A   Scattered Clouds
10:15 AM 32.2 °F 27.7 °F 21.2 °F 64% 30.04 in 10.0 mi West 4.6 mph - N/A   Scattered Clouds
10:34 AM 33.6 °F 30.6 °F 21.0 °F 60% 30.04 in 10.0 mi WSW 3.5 mph - N/A   Scattered Clouds
10:54 AM 34.5 °F 29.4 °F 21.2 °F 58% 30.05 in 10.0 mi WSW 5.8 mph - N/A   Scattered Clouds
11:15 AM 34.2 °F 30.0 °F 21.2 °F 59% 30.05 in 10.0 mi SSW 4.6 mph - N/A   Clear
11:34 AM 35.1 °F 29.3 °F 21.7 °F 58% 30.05 in 10.0 mi SW 6.9 mph - N/A   Scattered Clouds
11:54 AM 35.8 °F 29.4 °F 22.3 °F 58% 30.04 in 10.0 mi WSW 8.1 mph - N/A   Mostly Cloudy
12:15 PM 35.8 °F 29.4 °F 22.3 °F 58% 30.04 in 10.0 mi WSW 8.1 mph - N/A   Mostly Cloudy
12:34 PM 36.3 °F 30.8 °F 23.0 °F 59% 30.04 in 10.0 mi SW 6.9 mph - N/A   Overcast
12:54 PM 35.6 °F 29.2 °F 24.6 °F 64% 30.04 in 10.0 mi SW 8.1 mph - N/A   Overcast
1:15 PM 36.7 °F 31.2 °F 25.9 °F 65% 30.04 in 10.0 mi SSW 6.9 mph - N/A   Overcast
1:34 PM 37.0 °F 29.8 °F 26.1 °F 65% 30.04 in 10.0 mi WSW 10.4 mph - N/A   Mostly Cloudy
1:54 PM 36.9 °F 31.4 °F 26.4 °F 66% 30.05 in 10.0 mi SW 6.9 mph - N/A   Overcast
2:14 PM 37.6 °F 31.6 °F 26.1 °F 63% 30.04 in 10.0 mi SW 8.1 mph - N/A   Overcast
2:34 PM 37.4 °F 31.4 °F 25.7 °F 63% 30.05 in 10.0 mi SW 8.1 mph - N/A   Overcast
2:54 PM 37.4 °F 32.1 °F 26.2 °F 64% 30.05 in 10.0 mi SSW 6.9 mph - N/A   Overcast
3:15 PM 37.8 °F 29.8 °F 25.2 °F 60% 30.05 in 10.0 mi South 12.7 mph 18.4 mph N/A   Overcast
3:34 PM 37.4 °F 29.3 °F 22.1 °F 54% 30.05 in 10.0 mi SSW 12.7 mph 20.7 mph N/A   Overcast
3:54 PM 37.2 °F 27.6 °F 21.2 °F 52% 30.05 in 10.0 mi SSW 17.3 mph 23.0 mph N/A   Overcast
4:15 PM 36.5 °F 29.2 °F 19.8 °F 51% 30.06 in 10.0 mi SW 10.4 mph 17.3 mph N/A   Overcast
4:34 PM 36.1 °F 27.7 °F 19.4 °F 51% 30.07 in 10.0 mi SW 12.7 mph 17.3 mph N/A   Overcast
4:54 PM 35.8 °F 27.8 °F 18.5 °F 50% 30.07 in 10.0 mi SW 11.5 mph 19.6 mph N/A   Overcast
5:15 PM 35.6 °F 29.2 °F 18.5 °F 50% 30.08 in 10.0 mi SW 8.1 mph - N/A   Overcast
5:34 PM 35.2 °F 28.8 °F 18.5 °F 51% 30.08 in 10.0 mi SW 8.1 mph - N/A   Overcast
5:55 PM 34.7 °F 28.8 °F 18.9 °F 52% 30.08 in 10.0 mi SW 6.9 mph - N/A   Scattered Clouds
6:15 PM 34.7 °F 27.5 °F 19.2 °F 53% 30.09 in 10.0 mi SW 9.2 mph - N/A   Clear
6:34 PM 34.3 °F 27.7 °F 20.1 °F 56% 30.10 in 10.0 mi SSW 8.1 mph - N/A   Scattered Clouds
6:55 PM 34.0 °F 25.5 °F 22.6 °F 63% 30.10 in 10.0 mi SSW 11.5 mph - N/A   Clear
7:14 PM 33.8 °F 25.8 °F 23.0 °F 65% 30.10 in 10.0 mi SSW 10.4 mph 18.4 mph N/A   Clear
7:35 PM 33.4 °F 25.4 °F 22.6 °F 65% 30.10 in 10.0 mi SSW 10.4 mph 17.3 mph N/A   Clear
7:55 PM 33.3 °F 24.1 °F 22.1 °F 64% 30.11 in 10.0 mi SW 12.7 mph 17.3 mph N/A   Clear
8:14 PM 32.9 °F 24.7 °F 21.7 °F 64% 30.11 in 10.0 mi SW 10.4 mph - N/A   Clear
8:35 PM 32.9 °F 24.7 °F 21.6 °F 63% 30.12 in 10.0 mi SW 10.4 mph - N/A   Clear
8:54 PM 32.9 °F 25.9 °F 21.9 °F 64% 30.13 in 10.0 mi SW 8.1 mph - N/A   Clear
9:14 PM 32.5 °F 25.5 °F 22.1 °F 65% 30.13 in 10.0 mi SW 8.1 mph - N/A   Clear
9:35 PM 32.4 °F 25.3 °F 22.5 °F 67% 30.14 in 10.0 mi SW 8.1 mph - N/A   Clear
9:54 PM 32.4 °F 25.3 °F 22.8 °F 68% 30.14 in 10.0 mi SW 8.1 mph - N/A   Clear
10:15 PM 32.0 °F 24.2 °F 23.0 °F 69% 30.14 in 10.0 mi SSW 9.2 mph - N/A   Clear
10:34 PM 32.0 °F 23.0 °F 23.7 °F 71% 30.14 in 10.0 mi SSW 11.5 mph 17.3 mph N/A   Clear
10:54 PM 32.0 °F 24.2 °F 23.9 °F 72% 30.15 in 10.0 mi SSW 9.2 mph - N/A   Clear
11:15 PM 32.0 °F 23.6 °F 23.9 °F 72% 30.15 in 10.0 mi SW 10.4 mph 16.1 mph N/A   Clear
11:34 PM 32.0 °F 24.2 °F 24.1 °F 73% 30.15 in 10.0 mi SW 9.2 mph 16.1 mph N/A   Clear
11:54 PM 32.0 °F 23.6 °F 24.4 °F 74% 30.16 in 10.0 mi SW 10.4 mph - N/A   Clear